sensor_id;sensor_type;location;lat;lon;timestamp;P1;durP1;ratioP1;P2;durP2;ratioP2
12838;SDS011;6486;51.034;5.262;2023-03-03T00:02:07;10.87;;;4.93;;
12838;SDS011;6486;51.034;5.262;2023-03-03T00:04:32;10.23;;;5.23;;
12838;SDS011;6486;51.034;5.262;2023-03-03T00:06:58;5.83;;;3.90;;
12838;SDS011;6486;51.034;5.262;2023-03-03T00:09:24;6.33;;;4.20;;
12838;SDS011;6486;51.034;5.262;2023-03-03T00:11:54;8.07;;;3.87;;
12838;SDS011;6486;51.034;5.262;2023-03-03T00:14:25;10.80;;;4.70;;
12838;SDS011;6486;51.034;5.262;2023-03-03T00:16:54;8.83;;;4.73;;
12838;SDS011;6486;51.034;5.262;2023-03-03T00:19:21;8.20;;;4.47;;
12838;SDS011;6486;51.034;5.262;2023-03-03T00:21:50;5.67;;;3.60;;
12838;SDS011;6486;51.034;5.262;2023-03-03T00:24:20;8.63;;;4.23;;
12838;SDS011;6486;51.034;5.262;2023-03-03T00:27:00;8.33;;;5.23;;
12838;SDS011;6486;51.034;5.262;2023-03-03T00:29:37;7.20;;;4.67;;
12838;SDS011;6486;51.034;5.262;2023-03-03T00:34:53;8.50;;;4.13;;
12838;SDS011;6486;51.034;5.262;2023-03-03T00:37:28;7.97;;;5.23;;
12838;SDS011;6486;51.034;5.262;2023-03-03T00:42:51;6.70;;;4.90;;
12838;SDS011;6486;51.034;5.262;2023-03-03T00:47:50;5.70;;;4.40;;
12838;SDS011;6486;51.034;5.262;2023-03-03T00:50:20;9.43;;;4.40;;
12838;SDS011;6486;51.034;5.262;2023-03-03T00:53:04;8.27;;;3.40;;
12838;SDS011;6486;51.034;5.262;2023-03-03T00:55:31;6.60;;;4.13;;
12838;SDS011;6486;51.034;5.262;2023-03-03T00:57:57;6.60;;;4.27;;
12838;SDS011;6486;51.034;5.262;2023-03-03T01:00:23;5.53;;;3.97;;
12838;SDS011;6486;51.034;5.262;2023-03-03T01:02:49;5.07;;;3.00;;
12838;SDS011;6486;51.034;5.262;2023-03-03T01:05:16;7.10;;;3.87;;
12838;SDS011;6486;51.034;5.262;2023-03-03T01:07:44;10.67;;;5.50;;
12838;SDS011;6486;51.034;5.262;2023-03-03T01:10:10;6.40;;;4.10;;
12838;SDS011;6486;51.034;5.262;2023-03-03T01:12:36;8.70;;;3.93;;
12838;SDS011;6486;51.034;5.262;2023-03-03T01:15:04;5.13;;;4.00;;
12838;SDS011;6486;51.034;5.262;2023-03-03T01:17:33;9.30;;;6.20;;
12838;SDS011;6486;51.034;5.262;2023-03-03T01:19:59;6.50;;;4.13;;
12838;SDS011;6486;51.034;5.262;2023-03-03T01:22:25;4.57;;;2.40;;
12838;SDS011;6486;51.034;5.262;2023-03-03T01:24:51;6.03;;;4.63;;
12838;SDS011;6486;51.034;5.262;2023-03-03T01:27:17;4.30;;;3.90;;
12838;SDS011;6486;51.034;5.262;2023-03-03T01:29:42;10.17;;;4.97;;
12838;SDS011;6486;51.034;5.262;2023-03-03T01:32:08;12.27;;;4.70;;
12838;SDS011;6486;51.034;5.262;2023-03-03T01:34:33;8.07;;;5.57;;
12838;SDS011;6486;51.034;5.262;2023-03-03T01:36:59;4.47;;;3.50;;
12838;SDS011;6486;51.034;5.262;2023-03-03T01:39:25;9.57;;;4.63;;
12838;SDS011;6486;51.034;5.262;2023-03-03T01:41:51;6.27;;;4.77;;
12838;SDS011;6486;51.034;5.262;2023-03-03T01:44:16;6.70;;;3.87;;
12838;SDS011;6486;51.034;5.262;2023-03-03T01:46:57;8.90;;;4.40;;
12838;SDS011;6486;51.034;5.262;2023-03-03T01:49:40;7.03;;;4.90;;
12838;SDS011;6486;51.034;5.262;2023-03-03T01:52:25;11.33;;;3.53;;
12838;SDS011;6486;51.034;5.262;2023-03-03T01:54:59;8.07;;;3.63;;
12838;SDS011;6486;51.034;5.262;2023-03-03T01:57:30;6.30;;;4.10;;
12838;SDS011;6486;51.034;5.262;2023-03-03T01:59:59;9.77;;;4.50;;
12838;SDS011;6486;51.034;5.262;2023-03-03T02:02:26;6.37;;;5.27;;
12838;SDS011;6486;51.034;5.262;2023-03-03T02:04:52;11.67;;;4.63;;
12838;SDS011;6486;51.034;5.262;2023-03-03T02:07:18;9.10;;;3.93;;
12838;SDS011;6486;51.034;5.262;2023-03-03T02:15:00;6.33;;;4.10;;
12838;SDS011;6486;51.034;5.262;2023-03-03T02:17:26;10.00;;;3.93;;
12838;SDS011;6486;51.034;5.262;2023-03-03T02:23:00;12.10;;;5.23;;
12838;SDS011;6486;51.034;5.262;2023-03-03T02:28:21;5.97;;;4.30;;
12838;SDS011;6486;51.034;5.262;2023-03-03T02:30:57;7.47;;;4.97;;
12838;SDS011;6486;51.034;5.262;2023-03-03T02:33:24;7.50;;;3.27;;
12838;SDS011;6486;51.034;5.262;2023-03-03T02:35:50;6.80;;;4.13;;
12838;SDS011;6486;51.034;5.262;2023-03-03T02:38:19;7.57;;;5.73;;
12838;SDS011;6486;51.034;5.262;2023-03-03T02:46:31;10.07;;;6.23;;
12838;SDS011;6486;51.034;5.262;2023-03-03T02:49:00;8.63;;;6.30;;
12838;SDS011;6486;51.034;5.262;2023-03-03T02:51:26;4.43;;;3.80;;
12838;SDS011;6486;51.034;5.262;2023-03-03T02:53:51;11.57;;;5.07;;
12838;SDS011;6486;51.034;5.262;2023-03-03T02:56:17;11.63;;;5.57;;
12838;SDS011;6486;51.034;5.262;2023-03-03T02:58:43;8.23;;;6.20;;
12838;SDS011;6486;51.034;5.262;2023-03-03T03:01:09;10.73;;;5.63;;
12838;SDS011;6486;51.034;5.262;2023-03-03T03:03:35;12.73;;;4.50;;
12838;SDS011;6486;51.034;5.262;2023-03-03T03:06:00;10.53;;;3.53;;
12838;SDS011;6486;51.034;5.262;2023-03-03T03:08:26;7.80;;;7.03;;
12838;SDS011;6486;51.034;5.262;2023-03-03T03:10:52;7.73;;;4.03;;
12838;SDS011;6486;51.034;5.262;2023-03-03T03:13:18;5.10;;;4.37;;
12838;SDS011;6486;51.034;5.262;2023-03-03T03:15:46;8.77;;;3.97;;
12838;SDS011;6486;51.034;5.262;2023-03-03T03:18:13;12.90;;;5.00;;
12838;SDS011;6486;51.034;5.262;2023-03-03T03:20:39;15.63;;;5.23;;
12838;SDS011;6486;51.034;5.262;2023-03-03T03:23:06;9.63;;;4.60;;
12838;SDS011;6486;51.034;5.262;2023-03-03T03:25:32;12.13;;;4.93;;
12838;SDS011;6486;51.034;5.262;2023-03-03T03:27:58;8.97;;;4.53;;
12838;SDS011;6486;51.034;5.262;2023-03-03T03:30:23;6.40;;;5.23;;
12838;SDS011;6486;51.034;5.262;2023-03-03T03:32:49;9.20;;;5.10;;
12838;SDS011;6486;51.034;5.262;2023-03-03T03:35:15;10.83;;;5.97;;
12838;SDS011;6486;51.034;5.262;2023-03-03T03:37:41;11.57;;;5.70;;
12838;SDS011;6486;51.034;5.262;2023-03-03T03:40:07;11.20;;;5.80;;
12838;SDS011;6486;51.034;5.262;2023-03-03T03:42:34;10.27;;;4.37;;
12838;SDS011;6486;51.034;5.262;2023-03-03T03:44:59;6.17;;;5.57;;
12838;SDS011;6486;51.034;5.262;2023-03-03T03:47:25;10.50;;;5.17;;
12838;SDS011;6486;51.034;5.262;2023-03-03T03:49:51;8.50;;;4.20;;
12838;SDS011;6486;51.034;5.262;2023-03-03T03:52:16;7.37;;;4.07;;
12838;SDS011;6486;51.034;5.262;2023-03-03T03:54:42;6.70;;;5.50;;
12838;SDS011;6486;51.034;5.262;2023-03-03T03:57:07;8.27;;;5.20;;
12838;SDS011;6486;51.034;5.262;2023-03-03T03:59:33;10.83;;;5.33;;
12838;SDS011;6486;51.034;5.262;2023-03-03T04:01:59;5.53;;;4.83;;
12838;SDS011;6486;51.034;5.262;2023-03-03T04:04:24;13.70;;;5.30;;
12838;SDS011;6486;51.034;5.262;2023-03-03T04:06:50;7.40;;;5.17;;
12838;SDS011;6486;51.034;5.262;2023-03-03T04:09:16;6.63;;;4.00;;
12838;SDS011;6486;51.034;5.262;2023-03-03T04:11:41;5.87;;;4.43;;
12838;SDS011;6486;51.034;5.262;2023-03-03T04:14:07;6.90;;;4.37;;
12838;SDS011;6486;51.034;5.262;2023-03-03T04:16:32;10.13;;;5.47;;
12838;SDS011;6486;51.034;5.262;2023-03-03T04:18:58;7.90;;;4.03;;
12838;SDS011;6486;51.034;5.262;2023-03-03T04:21:24;18.30;;;6.63;;
12838;SDS011;6486;51.034;5.262;2023-03-03T04:23:50;13.10;;;5.13;;
12838;SDS011;6486;51.034;5.262;2023-03-03T04:26:17;9.37;;;5.90;;
12838;SDS011;6486;51.034;5.262;2023-03-03T04:28:43;9.73;;;5.27;;
12838;SDS011;6486;51.034;5.262;2023-03-03T04:31:09;7.07;;;4.77;;
12838;SDS011;6486;51.034;5.262;2023-03-03T04:33:35;6.03;;;4.50;;
12838;SDS011;6486;51.034;5.262;2023-03-03T04:36:01;8.17;;;5.27;;
12838;SDS011;6486;51.034;5.262;2023-03-03T04:38:26;10.97;;;4.83;;
12838;SDS011;6486;51.034;5.262;2023-03-03T04:40:52;10.27;;;3.50;;
12838;SDS011;6486;51.034;5.262;2023-03-03T04:43:18;11.30;;;5.40;;
12838;SDS011;6486;51.034;5.262;2023-03-03T04:45:43;7.73;;;3.73;;
12838;SDS011;6486;51.034;5.262;2023-03-03T04:48:09;11.53;;;4.83;;
12838;SDS011;6486;51.034;5.262;2023-03-03T04:50:35;8.90;;;4.90;;
12838;SDS011;6486;51.034;5.262;2023-03-03T04:53:00;8.53;;;4.60;;
12838;SDS011;6486;51.034;5.262;2023-03-03T04:55:26;10.23;;;4.83;;
12838;SDS011;6486;51.034;5.262;2023-03-03T04:57:52;10.40;;;5.37;;
12838;SDS011;6486;51.034;5.262;2023-03-03T05:00:17;6.97;;;4.63;;
12838;SDS011;6486;51.034;5.262;2023-03-03T05:02:43;7.87;;;4.30;;
12838;SDS011;6486;51.034;5.262;2023-03-03T05:05:11;10.63;;;5.23;;
12838;SDS011;6486;51.034;5.262;2023-03-03T05:07:38;6.93;;;3.67;;
12838;SDS011;6486;51.034;5.262;2023-03-03T05:10:04;7.60;;;3.93;;
12838;SDS011;6486;51.034;5.262;2023-03-03T05:12:30;8.40;;;4.90;;
12838;SDS011;6486;51.034;5.262;2023-03-03T05:14:56;12.07;;;4.47;;
12838;SDS011;6486;51.034;5.262;2023-03-03T05:17:22;9.43;;;5.43;;
12838;SDS011;6486;51.034;5.262;2023-03-03T05:19:47;7.90;;;4.93;;
12838;SDS011;6486;51.034;5.262;2023-03-03T05:22:13;6.83;;;3.90;;
12838;SDS011;6486;51.034;5.262;2023-03-03T05:24:39;9.67;;;4.50;;
12838;SDS011;6486;51.034;5.262;2023-03-03T05:27:07;5.80;;;4.87;;
12838;SDS011;6486;51.034;5.262;2023-03-03T05:29:32;6.23;;;4.97;;
12838;SDS011;6486;51.034;5.262;2023-03-03T05:31:58;10.90;;;5.33;;
12838;SDS011;6486;51.034;5.262;2023-03-03T05:34:24;8.33;;;5.00;;
12838;SDS011;6486;51.034;5.262;2023-03-03T05:36:50;12.33;;;4.50;;
12838;SDS011;6486;51.034;5.262;2023-03-03T05:39:15;10.00;;;5.33;;
12838;SDS011;6486;51.034;5.262;2023-03-03T05:41:41;8.07;;;5.50;;
12838;SDS011;6486;51.034;5.262;2023-03-03T05:44:07;6.50;;;3.57;;
12838;SDS011;6486;51.034;5.262;2023-03-03T05:46:33;8.77;;;4.40;;
12838;SDS011;6486;51.034;5.262;2023-03-03T05:48:59;5.67;;;5.17;;
12838;SDS011;6486;51.034;5.262;2023-03-03T05:51:24;11.80;;;5.03;;
12838;SDS011;6486;51.034;5.262;2023-03-03T05:53:50;6.07;;;4.43;;
12838;SDS011;6486;51.034;5.262;2023-03-03T05:56:16;14.27;;;5.50;;
12838;SDS011;6486;51.034;5.262;2023-03-03T05:58:41;7.13;;;3.77;;
12838;SDS011;6486;51.034;5.262;2023-03-03T06:01:07;8.17;;;3.77;;
12838;SDS011;6486;51.034;5.262;2023-03-03T06:03:33;11.03;;;3.90;;
12838;SDS011;6486;51.034;5.262;2023-03-03T06:05:58;9.43;;;5.10;;
12838;SDS011;6486;51.034;5.262;2023-03-03T06:08:24;8.10;;;4.97;;
12838;SDS011;6486;51.034;5.262;2023-03-03T06:10:50;7.40;;;3.77;;
12838;SDS011;6486;51.034;5.262;2023-03-03T06:13:15;7.97;;;5.33;;
12838;SDS011;6486;51.034;5.262;2023-03-03T06:15:41;6.10;;;5.43;;
12838;SDS011;6486;51.034;5.262;2023-03-03T06:18:07;9.83;;;4.03;;
12838;SDS011;6486;51.034;5.262;2023-03-03T06:20:33;6.60;;;4.20;;
12838;SDS011;6486;51.034;5.262;2023-03-03T06:22:59;6.37;;;4.60;;
12838;SDS011;6486;51.034;5.262;2023-03-03T06:25:25;8.83;;;5.13;;
12838;SDS011;6486;51.034;5.262;2023-03-03T06:27:51;9.37;;;4.23;;
12838;SDS011;6486;51.034;5.262;2023-03-03T06:30:16;13.73;;;4.33;;
12838;SDS011;6486;51.034;5.262;2023-03-03T06:32:43;7.57;;;4.50;;
12838;SDS011;6486;51.034;5.262;2023-03-03T06:35:09;8.63;;;4.67;;
12838;SDS011;6486;51.034;5.262;2023-03-03T06:37:35;9.83;;;4.33;;
12838;SDS011;6486;51.034;5.262;2023-03-03T06:40:00;8.33;;;2.90;;
12838;SDS011;6486;51.034;5.262;2023-03-03T06:42:26;7.53;;;4.53;;
12838;SDS011;6486;51.034;5.262;2023-03-03T06:44:52;8.87;;;4.33;;
12838;SDS011;6486;51.034;5.262;2023-03-03T06:47:17;6.87;;;4.07;;
12838;SDS011;6486;51.034;5.262;2023-03-03T06:49:43;11.57;;;3.53;;
12838;SDS011;6486;51.034;5.262;2023-03-03T06:52:10;10.67;;;5.27;;
12838;SDS011;6486;51.034;5.262;2023-03-03T06:54:38;11.50;;;4.00;;
12838;SDS011;6486;51.034;5.262;2023-03-03T06:57:12;8.33;;;4.93;;
12838;SDS011;6486;51.034;5.262;2023-03-03T06:59:50;6.70;;;3.00;;
12838;SDS011;6486;51.034;5.262;2023-03-03T07:02:17;7.40;;;4.50;;
12838;SDS011;6486;51.034;5.262;2023-03-03T07:04:45;7.63;;;3.77;;
12838;SDS011;6486;51.034;5.262;2023-03-03T07:09:49;7.67;;;4.40;;
12838;SDS011;6486;51.034;5.262;2023-03-03T07:12:21;14.83;;;6.43;;
12838;SDS011;6486;51.034;5.262;2023-03-03T07:17:45;9.83;;;4.47;;
12838;SDS011;6486;51.034;5.262;2023-03-03T07:20:20;7.97;;;3.97;;
12838;SDS011;6486;51.034;5.262;2023-03-03T07:22:47;8.40;;;5.57;;
12838;SDS011;6486;51.034;5.262;2023-03-03T07:25:33;8.57;;;4.67;;
12838;SDS011;6486;51.034;5.262;2023-03-03T07:30:54;14.07;;;5.00;;
12838;SDS011;6486;51.034;5.262;2023-03-03T07:35:55;10.73;;;5.83;;
12838;SDS011;6486;51.034;5.262;2023-03-03T07:38:29;6.57;;;4.60;;
12838;SDS011;6486;51.034;5.262;2023-03-03T07:40:57;13.90;;;4.57;;
12838;SDS011;6486;51.034;5.262;2023-03-03T07:48:36;8.43;;;4.70;;
12838;SDS011;6486;51.034;5.262;2023-03-03T07:51:25;9.00;;;5.23;;
12838;SDS011;6486;51.034;5.262;2023-03-03T07:56:36;10.97;;;4.80;;
12838;SDS011;6486;51.034;5.262;2023-03-03T07:59:02;10.47;;;4.00;;
12838;SDS011;6486;51.034;5.262;2023-03-03T08:01:45;8.77;;;3.83;;
12838;SDS011;6486;51.034;5.262;2023-03-03T08:06:50;11.77;;;4.67;;
12838;SDS011;6486;51.034;5.262;2023-03-03T08:11:50;7.77;;;4.13;;
12838;SDS011;6486;51.034;5.262;2023-03-03T08:14:42;11.73;;;4.70;;
12838;SDS011;6486;51.034;5.262;2023-03-03T08:17:28;12.73;;;5.53;;
12838;SDS011;6486;51.034;5.262;2023-03-03T08:20:00;8.23;;;4.63;;
12838;SDS011;6486;51.034;5.262;2023-03-03T08:22:53;7.73;;;4.63;;
12838;SDS011;6486;51.034;5.262;2023-03-03T08:25:19;11.03;;;5.60;;
12838;SDS011;6486;51.034;5.262;2023-03-03T08:27:45;10.50;;;4.63;;
12838;SDS011;6486;51.034;5.262;2023-03-03T08:30:11;6.63;;;3.70;;
12838;SDS011;6486;51.034;5.262;2023-03-03T08:32:37;6.93;;;3.67;;
12838;SDS011;6486;51.034;5.262;2023-03-03T08:35:02;7.20;;;4.97;;
12838;SDS011;6486;51.034;5.262;2023-03-03T08:37:28;4.80;;;3.20;;
12838;SDS011;6486;51.034;5.262;2023-03-03T08:39:54;5.33;;;4.00;;
12838;SDS011;6486;51.034;5.262;2023-03-03T08:42:19;10.63;;;5.17;;
12838;SDS011;6486;51.034;5.262;2023-03-03T08:44:45;8.43;;;4.20;;
12838;SDS011;6486;51.034;5.262;2023-03-03T08:47:11;10.53;;;3.47;;
12838;SDS011;6486;51.034;5.262;2023-03-03T08:49:36;5.03;;;4.07;;
12838;SDS011;6486;51.034;5.262;2023-03-03T08:52:02;12.00;;;4.80;;
12838;SDS011;6486;51.034;5.262;2023-03-03T08:54:28;7.73;;;4.40;;
12838;SDS011;6486;51.034;5.262;2023-03-03T08:56:53;10.07;;;4.57;;
12838;SDS011;6486;51.034;5.262;2023-03-03T08:59:19;5.50;;;3.83;;
12838;SDS011;6486;51.034;5.262;2023-03-03T09:01:46;6.87;;;3.57;;
12838;SDS011;6486;51.034;5.262;2023-03-03T09:04:11;9.17;;;4.17;;
12838;SDS011;6486;51.034;5.262;2023-03-03T09:06:38;4.20;;;3.77;;
12838;SDS011;6486;51.034;5.262;2023-03-03T09:09:04;2.93;;;2.73;;
12838;SDS011;6486;51.034;5.262;2023-03-03T09:11:30;4.40;;;3.97;;
12838;SDS011;6486;51.034;5.262;2023-03-03T09:16:36;8.73;;;3.80;;
12838;SDS011;6486;51.034;5.262;2023-03-03T09:21:45;7.50;;;4.47;;
12838;SDS011;6486;51.034;5.262;2023-03-03T09:24:17;9.23;;;5.57;;
12838;SDS011;6486;51.034;5.262;2023-03-03T09:26:53;11.67;;;3.47;;
12838;SDS011;6486;51.034;5.262;2023-03-03T09:29:23;6.53;;;3.77;;
12838;SDS011;6486;51.034;5.262;2023-03-03T09:32:07;6.50;;;3.50;;
12838;SDS011;6486;51.034;5.262;2023-03-03T09:34:51;5.90;;;2.83;;
12838;SDS011;6486;51.034;5.262;2023-03-03T09:37:27;4.70;;;4.10;;
12838;SDS011;6486;51.034;5.262;2023-03-03T09:39:56;12.53;;;4.47;;
12838;SDS011;6486;51.034;5.262;2023-03-03T09:42:29;3.83;;;3.53;;
12838;SDS011;6486;51.034;5.262;2023-03-03T09:53:32;5.27;;;2.90;;
12838;SDS011;6486;51.034;5.262;2023-03-03T09:56:42;7.67;;;2.97;;
12838;SDS011;6486;51.034;5.262;2023-03-03T10:10:38;7.20;;;4.33;;
12838;SDS011;6486;51.034;5.262;2023-03-03T10:12:39;7.17;;;4.07;;
12838;SDS011;6486;51.034;5.262;2023-03-03T10:15:17;4.10;;;3.80;;
12838;SDS011;6486;51.034;5.262;2023-03-03T10:23:07;5.63;;;3.50;;
12838;SDS011;6486;51.034;5.262;2023-03-03T10:25:39;8.37;;;4.47;;
12838;SDS011;6486;51.034;5.262;2023-03-03T10:50:46;6.77;;;3.43;;
12838;SDS011;6486;51.034;5.262;2023-03-03T10:53:22;5.37;;;3.67;;
12838;SDS011;6486;51.034;5.262;2023-03-03T10:58:45;4.33;;;3.07;;
12838;SDS011;6486;51.034;5.262;2023-03-03T11:01:34;3.70;;;3.37;;
12838;SDS011;6486;51.034;5.262;2023-03-03T11:07:10;5.63;;;3.03;;
12838;SDS011;6486;51.034;5.262;2023-03-03T11:12:40;3.87;;;3.13;;
12838;SDS011;6486;51.034;5.262;2023-03-03T11:18:09;4.30;;;3.40;;
12838;SDS011;6486;51.034;5.262;2023-03-03T11:21:01;2.17;;;1.57;;
12838;SDS011;6486;51.034;5.262;2023-03-03T11:26:33;6.53;;;5.17;;
12838;SDS011;6486;51.034;5.262;2023-03-03T11:29:24;5.43;;;2.97;;
12838;SDS011;6486;51.034;5.262;2023-03-03T11:31:59;4.73;;;3.00;;
12838;SDS011;6486;51.034;5.262;2023-03-03T11:35:28;5.90;;;4.03;;
12838;SDS011;6486;51.034;5.262;2023-03-03T11:40:58;4.13;;;2.90;;
12838;SDS011;6486;51.034;5.262;2023-03-03T11:43:41;7.17;;;3.43;;
12838;SDS011;6486;51.034;5.262;2023-03-03T11:46:24;4.33;;;2.53;;
12838;SDS011;6486;51.034;5.262;2023-03-03T11:49:02;6.10;;;2.03;;
12838;SDS011;6486;51.034;5.262;2023-03-03T11:56:43;5.57;;;3.23;;
12838;SDS011;6486;51.034;5.262;2023-03-03T12:07:30;10.00;;;4.43;;
12838;SDS011;6486;51.034;5.262;2023-03-03T12:10:00;8.90;;;4.07;;
12838;SDS011;6486;51.034;5.262;2023-03-03T12:12:42;4.17;;;3.23;;
12838;SDS011;6486;51.034;5.262;2023-03-03T12:26:18;6.07;;;3.47;;
12838;SDS011;6486;51.034;5.262;2023-03-03T12:41:10;3.10;;;2.90;;
12838;SDS011;6486;51.034;5.262;2023-03-03T12:46:10;3.13;;;2.63;;
12838;SDS011;6486;51.034;5.262;2023-03-03T12:48:56;6.07;;;4.40;;
12838;SDS011;6486;51.034;5.262;2023-03-03T12:54:12;3.87;;;3.57;;
12838;SDS011;6486;51.034;5.262;2023-03-03T12:56:59;3.33;;;3.10;;
12838;SDS011;6486;51.034;5.262;2023-03-03T12:59:38;7.53;;;4.10;;
12838;SDS011;6486;51.034;5.262;2023-03-03T13:05:04;8.50;;;2.30;;
12838;SDS011;6486;51.034;5.262;2023-03-03T13:07:46;6.03;;;3.30;;
12838;SDS011;6486;51.034;5.262;2023-03-03T13:13:07;5.37;;;3.33;;
12838;SDS011;6486;51.034;5.262;2023-03-03T13:21:10;3.20;;;2.03;;
12838;SDS011;6486;51.034;5.262;2023-03-03T13:26:30;2.57;;;2.40;;
12838;SDS011;6486;51.034;5.262;2023-03-03T13:29:13;3.87;;;2.90;;
12838;SDS011;6486;51.034;5.262;2023-03-03T13:31:43;4.47;;;2.30;;
12838;SDS011;6486;51.034;5.262;2023-03-03T13:35:03;2.47;;;2.37;;
12838;SDS011;6486;51.034;5.262;2023-03-03T13:45:24;5.20;;;2.77;;
12838;SDS011;6486;51.034;5.262;2023-03-03T13:50:52;4.37;;;2.57;;
12838;SDS011;6486;51.034;5.262;2023-03-03T13:59:12;4.13;;;1.80;;
12838;SDS011;6486;51.034;5.262;2023-03-03T14:04:49;2.60;;;2.40;;
12838;SDS011;6486;51.034;5.262;2023-03-03T14:10:20;2.40;;;1.50;;
12838;SDS011;6486;51.034;5.262;2023-03-03T14:13:26;6.50;;;2.47;;
12838;SDS011;6486;51.034;5.262;2023-03-03T14:15:52;5.90;;;2.60;;
12838;SDS011;6486;51.034;5.262;2023-03-03T14:18:40;2.17;;;1.90;;
12838;SDS011;6486;51.034;5.262;2023-03-03T14:21:37;3.30;;;2.07;;
12838;SDS011;6486;51.034;5.262;2023-03-03T14:24:16;6.00;;;3.10;;
12838;SDS011;6486;51.034;5.262;2023-03-03T14:26:47;4.50;;;2.33;;
12838;SDS011;6486;51.034;5.262;2023-03-03T14:29:18;2.90;;;2.70;;
12838;SDS011;6486;51.034;5.262;2023-03-03T14:31:44;3.77;;;2.90;;
12838;SDS011;6486;51.034;5.262;2023-03-03T14:36:37;5.70;;;1.97;;
12838;SDS011;6486;51.034;5.262;2023-03-03T14:41:52;1.97;;;1.40;;
12838;SDS011;6486;51.034;5.262;2023-03-03T14:44:25;5.67;;;2.60;;
12838;SDS011;6486;51.034;5.262;2023-03-03T14:47:05;4.70;;;1.37;;
12838;SDS011;6486;51.034;5.262;2023-03-03T14:49:37;3.30;;;1.93;;
12838;SDS011;6486;51.034;5.262;2023-03-03T14:52:46;6.03;;;2.23;;
12838;SDS011;6486;51.034;5.262;2023-03-03T14:54:54;2.43;;;1.60;;
12838;SDS011;6486;51.034;5.262;2023-03-03T15:00:08;3.13;;;1.20;;
12838;SDS011;6486;51.034;5.262;2023-03-03T15:05:29;4.90;;;2.13;;
12838;SDS011;6486;51.034;5.262;2023-03-03T15:10:28;4.13;;;1.93;;
12838;SDS011;6486;51.034;5.262;2023-03-03T15:18:23;4.67;;;1.83;;
12838;SDS011;6486;51.034;5.262;2023-03-03T15:21:04;5.53;;;1.97;;
12838;SDS011;6486;51.034;5.262;2023-03-03T15:27:02;1.83;;;1.67;;
12838;SDS011;6486;51.034;5.262;2023-03-03T15:29:32;3.10;;;1.70;;
12838;SDS011;6486;51.034;5.262;2023-03-03T15:40:46;2.47;;;0.80;;
12838;SDS011;6486;51.034;5.262;2023-03-03T15:43:19;0.83;;;0.83;;
12838;SDS011;6486;51.034;5.262;2023-03-03T15:48:49;2.13;;;1.00;;
12838;SDS011;6486;51.034;5.262;2023-03-03T15:54:04;2.83;;;1.80;;
12838;SDS011;6486;51.034;5.262;2023-03-03T16:04:36;1.00;;;0.70;;
12838;SDS011;6486;51.034;5.262;2023-03-03T16:07:16;2.87;;;1.67;;
12838;SDS011;6486;51.034;5.262;2023-03-03T16:09:59;1.23;;;1.00;;
12838;SDS011;6486;51.034;5.262;2023-03-03T16:23:55;2.87;;;2.07;;
12838;SDS011;6486;51.034;5.262;2023-03-03T16:26:30;3.80;;;2.00;;
12838;SDS011;6486;51.034;5.262;2023-03-03T16:37:00;3.57;;;1.77;;
12838;SDS011;6486;51.034;5.262;2023-03-03T16:42:38;2.00;;;1.43;;
12838;SDS011;6486;51.034;5.262;2023-03-03T16:45:23;1.60;;;1.43;;
12838;SDS011;6486;51.034;5.262;2023-03-03T16:50:47;3.90;;;1.20;;
12838;SDS011;6486;51.034;5.262;2023-03-03T16:56:19;2.27;;;1.87;;
12838;SDS011;6486;51.034;5.262;2023-03-03T16:59:51;2.73;;;2.53;;
12838;SDS011;6486;51.034;5.262;2023-03-03T17:01:59;1.53;;;1.50;;
12838;SDS011;6486;51.034;5.262;2023-03-03T17:24:21;1.93;;;1.77;;
12838;SDS011;6486;51.034;5.262;2023-03-03T17:46:18;4.20;;;1.30;;
12838;SDS011;6486;51.034;5.262;2023-03-03T17:54:32;2.40;;;1.43;;
12838;SDS011;6486;51.034;5.262;2023-03-03T18:00:17;6.90;;;2.30;;
12838;SDS011;6486;51.034;5.262;2023-03-03T18:05:48;3.63;;;2.20;;
12838;SDS011;6486;51.034;5.262;2023-03-03T18:08:28;2.47;;;1.83;;
12838;SDS011;6486;51.034;5.262;2023-03-03T18:11:09;1.67;;;1.57;;
12838;SDS011;6486;51.034;5.262;2023-03-03T18:22:16;3.53;;;2.30;;
12838;SDS011;6486;51.034;5.262;2023-03-03T18:30:30;5.27;;;1.27;;
12838;SDS011;6486;51.034;5.262;2023-03-03T18:37:48;1.90;;;1.50;;
12838;SDS011;6486;51.034;5.262;2023-03-03T18:40:18;1.63;;;1.53;;
12838;SDS011;6486;51.034;5.262;2023-03-03T18:42:48;3.77;;;1.93;;
12838;SDS011;6486;51.034;5.262;2023-03-03T18:50:34;2.97;;;1.70;;
12838;SDS011;6486;51.034;5.262;2023-03-03T18:55:49;3.20;;;1.90;;
12838;SDS011;6486;51.034;5.262;2023-03-03T19:00:47;2.73;;;1.23;;
12838;SDS011;6486;51.034;5.262;2023-03-03T19:03:23;3.23;;;1.63;;
12838;SDS011;6486;51.034;5.262;2023-03-03T19:05:54;3.93;;;1.73;;
12838;SDS011;6486;51.034;5.262;2023-03-03T19:08:25;2.83;;;1.60;;
12838;SDS011;6486;51.034;5.262;2023-03-03T19:14:10;4.67;;;2.47;;
12838;SDS011;6486;51.034;5.262;2023-03-03T19:16:36;4.50;;;1.60;;
12838;SDS011;6486;51.034;5.262;2023-03-03T19:19:07;1.93;;;1.60;;
12838;SDS011;6486;51.034;5.262;2023-03-03T19:21:36;4.17;;;1.90;;
12838;SDS011;6486;51.034;5.262;2023-03-03T19:24:03;3.50;;;1.80;;
12838;SDS011;6486;51.034;5.262;2023-03-03T19:32:03;5.30;;;3.97;;
12838;SDS011;6486;51.034;5.262;2023-03-03T19:38:02;2.17;;;1.97;;
12838;SDS011;6486;51.034;5.262;2023-03-03T19:49:01;3.13;;;2.77;;
12838;SDS011;6486;51.034;5.262;2023-03-03T19:54:52;6.00;;;3.37;;
12838;SDS011;6486;51.034;5.262;2023-03-03T20:00:40;4.67;;;4.27;;
12838;SDS011;6486;51.034;5.262;2023-03-03T20:09:01;4.17;;;3.70;;
12838;SDS011;6486;51.034;5.262;2023-03-03T20:14:38;5.33;;;3.67;;
12838;SDS011;6486;51.034;5.262;2023-03-03T20:25:26;4.80;;;3.97;;
12838;SDS011;6486;51.034;5.262;2023-03-03T20:42:05;8.47;;;4.43;;
12838;SDS011;6486;51.034;5.262;2023-03-03T20:47:29;5.53;;;3.80;;
12838;SDS011;6486;51.034;5.262;2023-03-03T20:50:02;6.67;;;5.03;;
12838;SDS011;6486;51.034;5.262;2023-03-03T20:52:40;6.73;;;5.23;;
12838;SDS011;6486;51.034;5.262;2023-03-03T20:58:03;5.90;;;4.03;;
12838;SDS011;6486;51.034;5.262;2023-03-03T21:00:51;5.47;;;4.97;;
12838;SDS011;6486;51.034;5.262;2023-03-03T21:05:59;8.47;;;4.27;;
12838;SDS011;6486;51.034;5.262;2023-03-03T21:11:07;8.03;;;4.47;;
12838;SDS011;6486;51.034;5.262;2023-03-03T21:13:34;7.33;;;5.03;;
12838;SDS011;6486;51.034;5.262;2023-03-03T21:16:47;5.70;;;5.03;;
12838;SDS011;6486;51.034;5.262;2023-03-03T21:21:22;7.90;;;4.33;;
12838;SDS011;6486;51.034;5.262;2023-03-03T21:23:49;6.37;;;4.50;;
12838;SDS011;6486;51.034;5.262;2023-03-03T21:26:41;13.50;;;4.47;;
12838;SDS011;6486;51.034;5.262;2023-03-03T21:31:46;9.40;;;4.43;;
12838;SDS011;6486;51.034;5.262;2023-03-03T21:34:21;7.00;;;3.80;;
12838;SDS011;6486;51.034;5.262;2023-03-03T21:36:48;4.60;;;4.23;;
12838;SDS011;6486;51.034;5.262;2023-03-03T21:39:34;12.00;;;5.10;;
12838;SDS011;6486;51.034;5.262;2023-03-03T21:42:01;6.57;;;2.60;;
12838;SDS011;6486;51.034;5.262;2023-03-03T21:44:33;2.93;;;2.73;;
12838;SDS011;6486;51.034;5.262;2023-03-03T21:47:00;3.43;;;3.13;;
12838;SDS011;6486;51.034;5.262;2023-03-03T21:49:27;2.37;;;2.17;;
12838;SDS011;6486;51.034;5.262;2023-03-03T21:51:53;5.13;;;3.20;;
12838;SDS011;6486;51.034;5.262;2023-03-03T21:54:19;5.70;;;2.27;;
12838;SDS011;6486;51.034;5.262;2023-03-03T21:56:45;4.33;;;2.37;;
12838;SDS011;6486;51.034;5.262;2023-03-03T21:59:12;4.00;;;3.60;;
12838;SDS011;6486;51.034;5.262;2023-03-03T22:01:38;2.87;;;1.73;;
12838;SDS011;6486;51.034;5.262;2023-03-03T22:04:03;3.93;;;2.23;;
12838;SDS011;6486;51.034;5.262;2023-03-03T22:06:29;2.20;;;1.93;;
12838;SDS011;6486;51.034;5.262;2023-03-03T22:08:55;9.60;;;3.07;;
12838;SDS011;6486;51.034;5.262;2023-03-03T22:11:21;4.03;;;2.63;;
12838;SDS011;6486;51.034;5.262;2023-03-03T22:13:46;2.43;;;2.23;;
12838;SDS011;6486;51.034;5.262;2023-03-03T22:16:12;3.93;;;2.73;;
12838;SDS011;6486;51.034;5.262;2023-03-03T22:18:37;4.20;;;2.33;;
12838;SDS011;6486;51.034;5.262;2023-03-03T22:21:03;2.77;;;1.30;;
12838;SDS011;6486;51.034;5.262;2023-03-03T22:23:30;3.33;;;1.53;;
12838;SDS011;6486;51.034;5.262;2023-03-03T22:25:56;3.87;;;1.70;;